Time;durP1;ratioP1;P1;durP2;ratioP2;P2;SDS_P1;SDS_P2;PMS_P1;PMS_P2;Temp;Humidity;BMP_temperature;BMP_pressure;BME280_temperature;BME280_humidity;BME280_pressure;Samples;Min_cycle;Max_cycle;Signal;HPM_P1;HPM_P2
2022/10/13 00:01:49;;;;;;;107.53;37.47;;;;;;;;;;6290979;28;20056;-62
2022/10/13 00:04:49;;;;;;;102.57;35.45;;;;;;;;;;6291476;28;20056;-66
2022/10/13 00:07:50;;;;;;;103.82;37.53;;;;;;;;;;6285188;28;20418;-65
2022/10/13 00:10:51;;;;;;;113.72;37.95;;;;;;;;;;6286470;28;20143;-61
2022/10/13 00:13:55;;;;;;;119.25;40.42;;;;;;;;;;6286461;28;20093;-61
2022/10/13 00:16:56;;;;;;;97.00;37.45;;;;;;;;;;6286275;28;20131;-64
2022/10/13 00:19:56;;;;;;;99.18;37.63;;;;;;;;;;6281839;28;20043;-62
2022/10/13 00:22:57;;;;;;;98.70;32.88;;;;;;;;;;6284881;28;20048;-66
2022/10/13 00:25:58;;;;;;;90.38;33.60;;;;;;;;;;6288537;28;20052;-65
2022/10/13 00:28:58;;;;;;;91.65;34.78;;;;;;;;;;6284211;28;20082;-65
2022/10/13 00:31:59;;;;;;;85.70;33.40;;;;;;;;;;6288932;28;20063;-64
2022/10/13 00:35:00;;;;;;;99.10;35.55;;;;;;;;;;6286788;28;20059;-61
2022/10/13 00:38:00;;;;;;;96.95;33.95;;;;;;;;;;6285090;28;20048;-65
2022/10/13 00:41:01;;;;;;;94.22;34.70;;;;;;;;;;6285357;28;20040;-62
2022/10/13 00:44:25;;;;;;;92.40;32.28;;;;;;;;;;6286319;28;20052;-64
2022/10/13 00:47:39;;;;;;;95.70;34.45;;;;;;;;;;6283473;28;20071;-65
2022/10/13 00:50:41;;;;;;;86.60;32.15;;;;;;;;;;6284882;28;20629;-61
2022/10/13 00:53:42;;;;;;;;;;;;;;;;;;6284924;28;20139;-61
2022/10/13 00:56:44;;;;;;;94.25;32.28;;;;;;;;;;6287849;28;19924;-64
2022/10/13 00:59:46;;;;;;;85.55;31.13;;;;;;;;;;6284581;28;20052;-61
2022/10/13 01:02:46;;;;;;;87.05;32.95;;;;;;;;;;6284677;28;20052;-65
2022/10/13 01:05:48;;;;;;;84.30;32.55;;;;;;;;;;6287004;28;20144;-64
2022/10/13 01:08:49;;;;;;;88.07;31.77;;;;;;;;;;6286001;28;20040;-62
2022/10/13 01:12:17;;;;;;;89.63;33.63;;;;;;;;;;6282206;28;20505;-61
2022/10/13 01:15:17;;;;;;;84.43;32.47;;;;;;;;;;6284205;28;20407;-65
2022/10/13 01:18:35;;;;;;;87.93;32.13;;;;;;;;;;6287544;28;20051;-62
2022/10/13 01:21:46;;;;;;;100.53;34.50;;;;;;;;;;6291790;28;20036;-65
2022/10/13 01:25:09;;;;;;;100.60;34.15;;;;;;;;;;6276055;28;20140;-65
2022/10/13 01:28:15;;;;;;;90.95;33.42;;;;;;;;;;6281718;28;20217;-65
2022/10/13 01:31:34;;;;;;;86.10;33.55;;;;;;;;;;6284587;28;20055;-65
2022/10/13 01:35:02;;;;;;;92.53;33.30;;;;;;;;;;6284468;28;20048;-65
2022/10/13 01:38:13;;;;;;;87.75;33.22;;;;;;;;;;6286633;28;20163;-64
2022/10/13 01:41:30;;;;;;;94.85;33.35;;;;;;;;;;6285872;28;20527;-63
2022/10/13 01:44:37;;;;;;;97.10;34.13;;;;;;;;;;6283432;28;20086;-62
2022/10/13 01:47:38;;;;;;;97.88;33.92;;;;;;;;;;6287806;28;20045;-65
2022/10/13 01:50:38;;;;;;;100.03;35.08;;;;;;;;;;6292721;28;20078;-63
2022/10/13 01:53:41;;;;;;;92.03;33.13;;;;;;;;;;6293932;28;20461;-61
2022/10/13 01:56:50;;;;;;;102.13;32.10;;;;;;;;;;6289440;28;20076;-64
2022/10/13 01:59:50;;;;;;;99.82;36.13;;;;;;;;;;6287882;28;20052;-65
2022/10/13 02:02:57;;;;;;;90.80;35.30;;;;;;;;;;6287043;28;20483;-60
2022/10/13 02:06:22;;;;;;;107.90;39.25;;;;;;;;;;6287165;28;20513;-65
2022/10/13 02:09:34;;;;;;;98.05;34.75;;;;;;;;;;6285074;28;20041;-64
2022/10/13 02:12:45;;;;;;;95.32;34.45;;;;;;;;;;6284200;28;20040;-64
2022/10/13 02:15:50;;;;;;;106.70;36.08;;;;;;;;;;6288021;28;20484;-64
2022/10/13 02:18:52;;;;;;;108.43;36.22;;;;;;;;;;6286273;28;20131;-64
2022/10/13 02:21:53;;;;;;;99.93;35.20;;;;;;;;;;6286239;28;20147;-64
2022/10/13 02:24:54;;;;;;;100.78;36.47;;;;;;;;;;6286880;28;20052;-61
2022/10/13 02:27:58;;;;;;;93.93;33.95;;;;;;;;;;6288679;28;20131;-64
2022/10/13 02:30:58;;;;;;;104.13;37.42;;;;;;;;;;6289832;28;20048;-61
2022/10/13 02:33:59;;;;;;;95.28;34.30;;;;;;;;;;6288944;28;20068;-62
2022/10/13 02:36:59;;;;;;;91.47;33.75;;;;;;;;;;6288812;28;20059;-60
2022/10/13 02:40:00;;;;;;;98.00;36.03;;;;;;;;;;6288079;28;20088;-61
2022/10/13 02:43:01;;;;;;;95.10;35.25;;;;;;;;;;6288194;28;20052;-62
2022/10/13 02:46:02;;;;;;;87.95;32.95;;;;;;;;;;6289993;28;20548;-64
2022/10/13 02:49:03;;;;;;;89.45;33.95;;;;;;;;;;6287858;28;20553;-64
2022/10/13 02:52:03;;;;;;;89.28;33.78;;;;;;;;;;6287895;28;20072;-61
2022/10/13 02:55:05;;;;;;;101.00;36.75;;;;;;;;;;6285924;28;20040;-64
2022/10/13 02:58:05;;;;;;;96.60;33.97;;;;;;;;;;6290171;28;20099;-64
2022/10/13 03:01:14;;;;;;;87.30;35.42;;;;;;;;;;6286860;28;20070;-64
2022/10/13 03:04:15;;;;;;;91.72;32.80;;;;;;;;;;6286180;28;20055;-65
2022/10/13 03:07:15;;;;;;;85.75;34.38;;;;;;;;;;6288913;28;20044;-62
2022/10/13 03:10:16;;;;;;;87.78;33.25;;;;;;;;;;6290013;28;20501;-61
2022/10/13 03:13:16;;;;;;;83.00;32.10;;;;;;;;;;6292809;28;20045;-64
2022/10/13 03:16:17;;;;;;;89.75;34.60;;;;;;;;;;6286677;28;20116;-65
2022/10/13 03:19:18;;;;;;;85.82;33.00;;;;;;;;;;6287697;28;20052;-61
2022/10/13 03:22:19;;;;;;;77.47;32.67;;;;;;;;;;6286301;28;20056;-63
2022/10/13 03:25:19;;;;;;;89.40;34.00;;;;;;;;;;6284150;28;20062;-62
2022/10/13 03:28:20;;;;;;;87.55;32.72;;;;;;;;;;6286723;28;20191;-61
2022/10/13 03:31:21;;;;;;;90.05;32.78;;;;;;;;;;6285062;28;20730;-63
2022/10/13 03:34:22;;;;;;;76.90;30.85;;;;;;;;;;6284207;28;20052;-61
2022/10/13 03:37:22;;;;;;;77.43;31.45;;;;;;;;;;6287197;28;20047;-64
2022/10/13 03:40:23;;;;;;;76.30;30.90;;;;;;;;;;6284784;28;20085;-63
2022/10/13 03:43:24;;;;;;;77.93;31.63;;;;;;;;;;6284789;28;20041;-61
2022/10/13 03:46:27;;;;;;;89.53;32.10;;;;;;;;;;6287095;28;20135;-62
2022/10/13 03:49:28;;;;;;;82.03;31.65;;;;;;;;;;6284486;28;20048;-64
2022/10/13 03:52:28;;;;;;;87.82;31.23;;;;;;;;;;6285178;28;20059;-64
2022/10/13 03:55:29;;;;;;;88.60;33.38;;;;;;;;;;6290493;28;20041;-62
2022/10/13 03:58:30;;;;;;;76.82;31.05;;;;;;;;;;6289740;28;20119;-62
2022/10/13 04:01:31;;;;;;;85.32;32.20;;;;;;;;;;6285556;28;20044;-61
2022/10/13 04:04:32;;;;;;;89.10;31.55;;;;;;;;;;6284195;28;20479;-63
2022/10/13 04:07:32;;;;;;;80.38;31.33;;;;;;;;;;6286802;28;20041;-64
2022/10/13 04:10:33;;;;;;;80.93;31.70;;;;;;;;;;6284527;28;20072;-62
2022/10/13 04:13:34;;;;;;;76.35;30.95;;;;;;;;;;6282328;28;20075;-63
2022/10/13 04:16:34;;;;;;;79.68;31.38;;;;;;;;;;6282175;28;20368;-62
2022/10/13 04:19:35;;;;;;;76.80;30.17;;;;;;;;;;6288856;28;20140;-63
2022/10/13 04:22:36;;;;;;;83.97;30.40;;;;;;;;;;6285469;28;20050;-65
2022/10/13 04:25:37;;;;;;;87.97;34.92;;;;;;;;;;6284921;28;20044;-63
2022/10/13 04:28:38;;;;;;;89.57;31.55;;;;;;;;;;6290042;28;20048;-64
2022/10/13 04:31:41;;;;;;;76.90;31.48;;;;;;;;;;6290194;28;20097;-62
2022/10/13 04:34:42;;;;;;;72.60;30.45;;;;;;;;;;6283662;28;20044;-62
2022/10/13 04:37:43;;;;;;;78.80;32.00;;;;;;;;;;6286548;28;20693;-61
2022/10/13 04:40:43;;;;;;;84.05;32.67;;;;;;;;;;6285063;28;20052;-61
2022/10/13 04:43:48;;;;;;;82.72;32.85;;;;;;;;;;6286229;28;20503;-65
2022/10/13 04:46:48;;;;;;;87.45;34.97;;;;;;;;;;6285552;28;20207;-65
2022/10/13 04:49:49;;;;;;;93.88;35.30;;;;;;;;;;6286319;28;20044;-62
2022/10/13 04:52:50;;;;;;;92.00;33.47;;;;;;;;;;6284314;28;20047;-61
2022/10/13 04:55:50;;;;;;;80.32;33.63;;;;;;;;;;6283317;28;20093;-63
2022/10/13 04:58:51;;;;;;;81.70;32.38;;;;;;;;;;6284267;28;20067;-57
2022/10/13 05:01:51;;;;;;;83.95;32.03;;;;;;;;;;6289591;28;20384;-60
2022/10/13 05:04:52;;;;;;;81.72;32.00;;;;;;;;;;6289691;28;20048;-62
2022/10/13 05:07:52;;;;;;;85.57;33.78;;;;;;;;;;6292223;28;20391;-63
2022/10/13 05:10:58;;;;;;;91.63;34.63;;;;;;;;;;6285218;28;20040;-63
2022/10/13 05:14:00;;;;;;;79.82;33.63;;;;;;;;;;6282226;28;20072;-59
2022/10/13 05:17:01;;;;;;;84.80;33.72;;;;;;;;;;6285305;28;20990;-60
2022/10/13 05:20:01;;;;;;;87.78;35.55;;;;;;;;;;6289476;28;20044;-64
2022/10/13 05:23:02;;;;;;;89.40;34.83;;;;;;;;;;6283688;28;20045;-58
2022/10/13 05:26:08;;;;;;;94.00;36.55;;;;;;;;;;6291578;28;20457;-65
2022/10/13 05:29:09;;;;;;;89.50;35.90;;;;;;;;;;6288568;28;20132;-59
2022/10/13 05:32:09;;;;;;;86.72;35.08;;;;;;;;;;6289032;28;20052;-61
2022/10/13 05:35:10;;;;;;;85.97;34.58;;;;;;;;;;6276604;28;20120;-65
2022/10/13 05:38:10;;;;;;;85.80;34.95;;;;;;;;;;6287761;28;20045;-60
2022/10/13 05:41:13;;;;;;;92.53;37.10;;;;;;;;;;6292817;28;20060;-63
2022/10/13 05:44:15;;;;;;;78.70;30.00;;;;;;;;;;6288314;28;20101;-63
2022/10/13 05:47:16;;;;;;;68.97;29.20;;;;;;;;;;6286255;28;20107;-58
2022/10/13 05:50:17;;;;;;;73.07;31.38;;;;;;;;;;6292385;28;20047;-65
2022/10/13 05:53:18;;;;;;;81.90;31.58;;;;;;;;;;6291576;28;20622;-64
2022/10/13 05:56:22;;;;;;;89.68;32.95;;;;;;;;;;6293412;28;20052;-64
2022/10/13 05:59:24;;;;;;;78.07;30.85;;;;;;;;;;6288411;28;20148;-60
2022/10/13 06:02:32;;;;;;;85.75;32.92;;;;;;;;;;6287606;28;20383;-59
2022/10/13 06:05:33;;;;;;;77.03;31.55;;;;;;;;;;6286279;28;20059;-62
2022/10/13 06:08:35;;;;;;;92.90;35.05;;;;;;;;;;6284914;28;20048;-59
2022/10/13 06:11:35;;;;;;;104.20;36.83;;;;;;;;;;6287156;28;20152;-59
2022/10/13 06:14:36;;;;;;;98.43;39.05;;;;;;;;;;6286335;28;20044;-60
2022/10/13 06:17:37;;;;;;;83.38;35.25;;;;;;;;;;6287158;28;20146;-65
2022/10/13 06:20:38;;;;;;;98.65;38.65;;;;;;;;;;6287756;28;20044;-62
2022/10/13 06:23:39;;;;;;;94.50;37.53;;;;;;;;;;6291584;28;20522;-61
2022/10/13 06:26:40;;;;;;;88.45;36.05;;;;;;;;;;6293418;28;20502;-61
2022/10/13 06:29:40;;;;;;;95.65;36.60;;;;;;;;;;6295160;28;20131;-60
2022/10/13 06:32:41;;;;;;;97.07;38.10;;;;;;;;;;6295896;28;20066;-59
2022/10/13 06:35:42;;;;;;;93.93;36.70;;;;;;;;;;6292910;28;20071;-61
2022/10/13 06:38:42;;;;;;;116.55;41.78;;;;;;;;;;6295100;28;20049;-60
2022/10/13 06:41:43;;;;;;;110.05;44.92;;;;;;;;;;6295586;28;20044;-60
2022/10/13 06:44:43;;;;;;;117.43;45.30;;;;;;;;;;6293941;28;20049;-64
2022/10/13 06:47:44;;;;;;;136.07;51.47;;;;;;;;;;6294100;28;20146;-63
2022/10/13 06:50:46;;;;;;;135.83;52.73;;;;;;;;;;6288469;28;20055;-60
2022/10/13 06:53:46;;;;;;;132.20;51.55;;;;;;;;;;6287587;28;20460;-64
2022/10/13 06:56:47;;;;;;;140.27;52.80;;;;;;;;;;6284465;28;20137;-63
2022/10/13 06:59:48;;;;;;;139.35;51.75;;;;;;;;;;6288088;28;20052;-63
2022/10/13 07:02:50;;;;;;;172.32;63.53;;;;;;;;;;6289571;28;20410;-61
2022/10/13 07:05:51;;;;;;;160.77;64.55;;;;;;;;;;6285189;28;20151;-61
2022/10/13 07:08:52;;;;;;;152.30;56.00;;;;;;;;;;6284710;28;20450;-62
2022/10/13 07:11:52;;;;;;;134.88;48.05;;;;;;;;;;6287533;28;20044;-63
2022/10/13 07:14:53;;;;;;;135.15;47.28;;;;;;;;;;6284133;28;20040;-63
2022/10/13 07:17:54;;;;;;;118.28;45.58;;;;;;;;;;6283443;28;20414;-62
2022/10/13 07:20:56;;;;;;;122.03;45.85;;;;;;;;;;6288221;28;20051;-60
2022/10/13 07:23:57;;;;;;;121.75;43.00;;;;;;;;;;6286535;28;20172;-62
2022/10/13 07:26:57;;;;;;;118.00;43.67;;;;;;;;;;6285715;28;20048;-64
2022/10/13 07:29:58;;;;;;;106.03;41.00;;;;;;;;;;6286583;28;20075;-64
2022/10/13 07:32:59;;;;;;;113.10;40.97;;;;;;;;;;6288519;28;20044;-60
2022/10/13 07:35:59;;;;;;;112.20;41.28;;;;;;;;;;6285433;28;20075;-65
2022/10/13 07:39:02;;;;;;;109.43;40.33;;;;;;;;;;6287389;28;20059;-64
2022/10/13 07:42:02;;;;;;;101.78;37.35;;;;;;;;;;6286287;28;20079;-59
2022/10/13 07:45:03;;;;;;;84.85;33.13;;;;;;;;;;6285884;28;20399;-60
2022/10/13 07:48:04;;;;;;;88.70;35.00;;;;;;;;;;6286110;28;20052;-62
2022/10/13 07:51:07;;;;;;;96.13;37.72;;;;;;;;;;6287150;28;20079;-61
2022/10/13 07:54:07;;;;;;;83.63;33.42;;;;;;;;;;6285815;28;20064;-65
2022/10/13 07:57:08;;;;;;;78.63;32.20;;;;;;;;;;6285578;28;20048;-60
2022/10/13 08:00:09;;;;;;;79.53;33.00;;;;;;;;;;6287585;28;20391;-60
2022/10/13 08:03:09;;;;;;;84.35;32.00;;;;;;;;;;6287048;28;20462;-61
2022/10/13 08:06:12;;;;;;;90.00;34.63;;;;;;;;;;6284713;28;20052;-63
2022/10/13 08:09:13;;;;;;;86.68;32.90;;;;;;;;;;6283603;28;20079;-61
2022/10/13 08:12:13;;;;;;;95.03;34.53;;;;;;;;;;6286962;28;20475;-63
2022/10/13 08:15:14;;;;;;;102.18;36.78;;;;;;;;;;6283784;28;20476;-60
2022/10/13 08:18:15;;;;;;;107.43;39.45;;;;;;;;;;6284052;28;20529;-60
2022/10/13 08:21:17;;;;;;;105.18;38.50;;;;;;;;;;6284774;28;20067;-63
2022/10/13 08:24:18;;;;;;;113.82;40.53;;;;;;;;;;6284655;28;20044;-60
2022/10/13 08:27:21;;;;;;;113.85;42.63;;;;;;;;;;6283995;28;20632;-63
2022/10/13 08:30:22;;;;;;;116.18;43.55;;;;;;;;;;6285542;28;20148;-61
2022/10/13 08:33:23;;;;;;;109.85;40.22;;;;;;;;;;6283642;28;20049;-62
2022/10/13 08:36:25;;;;;;;97.43;36.72;;;;;;;;;;6284787;28;20132;-63
2022/10/13 08:39:25;;;;;;;110.75;39.35;;;;;;;;;;6284917;28;20494;-62
2022/10/13 08:42:26;;;;;;;104.38;38.50;;;;;;;;;;6284129;28;20071;-64
2022/10/13 08:45:29;;;;;;;114.95;40.58;;;;;;;;;;6285284;28;20412;-64
2022/10/13 08:48:32;;;;;;;161.27;52.55;;;;;;;;;;6284650;28;20399;-61
2022/10/13 08:51:32;;;;;;;114.00;41.35;;;;;;;;;;6285542;28;20047;-60
2022/10/13 08:54:33;;;;;;;272.45;73.78;;;;;;;;;;6284334;28;20127;-63
2022/10/13 08:57:34;;;;;;;227.57;63.38;;;;;;;;;;6283210;28;20095;-61
2022/10/13 09:00:37;;;;;;;126.25;44.42;;;;;;;;;;6283026;28;20144;-63
2022/10/13 09:03:55;;;;;;;118.00;41.72;;;;;;;;;;6285478;28;20041;-62
2022/10/13 09:07:26;;;;;;;82.68;33.25;;;;;;;;;;6281657;28;20394;-64
2022/10/13 09:10:27;;;;;;;73.30;29.40;;;;;;;;;;6284808;28;20056;-63
2022/10/13 09:13:27;;;;;;;101.97;36.63;;;;;;;;;;6281172;28;20048;-61
2022/10/13 09:16:34;;;;;;;154.27;46.47;;;;;;;;;;6283674;28;20044;-64
2022/10/13 09:19:39;;;;;;;158.15;45.58;;;;;;;;;;6282728;28;20831;-64
2022/10/13 09:22:39;;;;;;;93.35;35.40;;;;;;;;;;6285535;28;20548;-61
2022/10/13 09:25:43;;;;;;;78.43;30.35;;;;;;;;;;6282673;28;20138;-61
2022/10/13 09:28:44;;;;;;;86.57;30.33;;;;;;;;;;6283204;28;20053;-61
2022/10/13 09:31:45;;;;;;;82.10;31.08;;;;;;;;;;6283800;28;20553;-62
2022/10/13 09:34:47;;;;;;;85.93;31.45;;;;;;;;;;6284703;28;20495;-61
2022/10/13 09:38:15;;;;;;;72.70;29.85;;;;;;;;;;6283017;28;20489;-64
2022/10/13 09:41:20;;;;;;;110.18;36.05;;;;;;;;;;6279100;28;20056;-64
2022/10/13 09:44:30;;;;;;;81.55;31.10;;;;;;;;;;6282814;28;20447;-64
2022/10/13 09:47:32;;;;;;;69.22;29.10;;;;;;;;;;6284584;28;20040;-64
2022/10/13 09:50:33;;;;;;;;;;;;;;;;;;6283918;28;20139;-65
2022/10/13 09:53:38;;;;;;;56.50;25.42;;;;;;;;;;6282406;28;19945;-63
2022/10/13 09:56:48;;;;;;;66.07;26.85;;;;;;;;;;6282594;28;20072;-63
2022/10/13 09:59:51;;;;;;;55.65;23.55;;;;;;;;;;6283782;28;20053;-64
2022/10/13 10:03:13;;;;;;;64.38;24.70;;;;;;;;;;6283642;28;20040;-65
2022/10/13 10:06:15;;;;;;;51.37;22.93;;;;;;;;;;6283212;28;20135;-60
2022/10/13 10:09:56;;;;;;;51.35;22.20;;;;;;;;;;6283742;28;20148;-63
2022/10/13 10:12:58;;;;;;;49.78;20.83;;;;;;;;;;6200845;28;20137;-61
2022/10/13 10:16:10;;;;;;;52.58;20.70;;;;;;;;;;6195993;28;20078;-65
2022/10/13 10:19:20;;;;;;;49.55;21.10;;;;;;;;;;6281734;28;20055;-61
2022/10/13 10:22:34;;;;;;;52.25;20.13;;;;;;;;;;6287894;28;20125;-60
2022/10/13 10:25:56;;;;;;;58.42;21.10;;;;;;;;;;6286425;28;20047;-64
2022/10/13 10:29:06;;;;;;;;;;;;;;;;;;6287100;28;20166;-60
2022/10/13 10:32:32;;;;;;;59.05;22.23;;;;;;;;;;6285714;28;19932;-61
2022/10/13 10:35:55;;;;;;;47.63;22.02;;;;;;;;;;6285799;28;20072;-62
2022/10/13 10:39:11;;;;;;;54.78;21.42;;;;;;;;;;6287724;28;20060;-64
2022/10/13 10:42:24;;;;;;;45.67;18.48;;;;;;;;;;6289045;28;20541;-63
2022/10/13 10:45:29;;;;;;;40.47;16.98;;;;;;;;;;6285568;28;20057;-65
2022/10/13 10:48:34;;;;;;;37.60;16.05;;;;;;;;;;6286869;28;20135;-64
2022/10/13 10:51:36;;;;;;;43.80;18.35;;;;;;;;;;6285859;28;20049;-60
2022/10/13 10:55:06;;;;;;;38.05;16.98;;;;;;;;;;6286327;28;20109;-64
2022/10/13 10:58:37;;;;;;;44.30;19.23;;;;;;;;;;6285722;28;20044;-60
2022/10/13 11:01:46;;;;;;;35.58;16.23;;;;;;;;;;6287354;28;20098;-60
2022/10/13 11:04:48;;;;;;;37.10;14.50;;;;;;;;;;6284573;28;20048;-64
2022/10/13 11:07:48;;;;;;;60.83;22.23;;;;;;;;;;6286798;28;20119;-61
2022/10/13 11:11:20;;;;;;;48.70;18.88;;;;;;;;;;6286021;28;20051;-60
2022/10/13 11:14:28;;;;;;;44.30;15.88;;;;;;;;;;6287362;28;20136;-63
2022/10/13 11:17:37;;;;;;;42.65;16.30;;;;;;;;;;6286658;28;20701;-65
2022/10/13 11:20:38;;;;;;;36.08;14.52;;;;;;;;;;6287407;28;20053;-61
2022/10/13 11:23:44;;;;;;;33.70;14.05;;;;;;;;;;6285641;28;20068;-60
2022/10/13 11:26:45;;;;;;;32.05;14.63;;;;;;;;;;6285252;28;20113;-60
2022/10/13 11:29:45;;;;;;;33.47;14.30;;;;;;;;;;6287148;28;20052;-60
2022/10/13 11:32:54;;;;;;;35.42;15.15;;;;;;;;;;6283664;28;20056;-61
2022/10/13 11:35:55;;;;;;;31.80;13.75;;;;;;;;;;6286370;28;20083;-61
2022/10/13 11:39:22;;;;;;;31.02;13.75;;;;;;;;;;6289818;28;20068;-60
2022/10/13 11:42:42;;;;;;;36.10;14.23;;;;;;;;;;6288023;28;20135;-65
2022/10/13 11:45:45;;;;;;;31.02;14.45;;;;;;;;;;6284733;28;20186;-63
2022/10/13 11:48:58;;;;;;;32.03;13.85;;;;;;;;;;6285613;28;20107;-60
2022/10/13 11:52:11;;;;;;;22.83;11.48;;;;;;;;;;6285207;28;20411;-59
2022/10/13 11:55:17;;;;;;;33.60;12.00;;;;;;;;;;6285022;28;20135;-63
2022/10/13 11:58:20;;;;;;;28.70;13.05;;;;;;;;;;6288172;28;20131;-64
2022/10/13 12:01:20;;;;;;;28.95;12.52;;;;;;;;;;6285127;28;20084;-63
2022/10/13 12:04:24;;;;;;;28.17;12.40;;;;;;;;;;6284260;28;20064;-59
2022/10/13 12:07:30;;;;;;;26.02;11.27;;;;;;;;;;6283284;28;20063;-59
2022/10/13 12:10:36;;;;;;;32.72;12.90;;;;;;;;;;6285286;28;20131;-63
2022/10/13 12:13:37;;;;;;;32.53;11.57;;;;;;;;;;6287236;28;20048;-62
2022/10/13 12:16:51;;;;;;;31.60;12.20;;;;;;;;;;6284541;28;20048;-63
2022/10/13 12:19:57;;;;;;;24.65;11.98;;;;;;;;;;6284936;28;20045;-62
2022/10/13 12:22:58;;;;;;;27.38;11.73;;;;;;;;;;6285119;28;20051;-62
2022/10/13 12:25:59;;;;;;;32.35;12.35;;;;;;;;;;6284359;28;20440;-60
2022/10/13 12:29:01;;;;;;;29.20;12.90;;;;;;;;;;6282383;28;20096;-63
2022/10/13 12:32:02;;;;;;;33.75;13.20;;;;;;;;;;6282863;28;21227;-64
2022/10/13 12:35:14;;;;;;;37.38;15.13;;;;;;;;;;6282577;28;20131;-59
2022/10/13 12:38:18;;;;;;;35.85;14.95;;;;;;;;;;6285006;28;20045;-63
2022/10/13 12:41:24;;;;;;;33.47;15.32;;;;;;;;;;6284860;28;20048;-63
2022/10/13 12:44:27;;;;;;;48.80;19.58;;;;;;;;;;6282660;28;20044;-60
2022/10/13 12:47:54;;;;;;;45.45;19.00;;;;;;;;;;6283512;28;20047;-64
2022/10/13 12:50:54;;;;;;;45.17;18.30;;;;;;;;;;6278548;28;20036;-61
2022/10/13 12:53:55;;;;;;;49.88;19.65;;;;;;;;;;6283686;28;20139;-64
2022/10/13 12:57:00;;;;;;;52.72;21.52;;;;;;;;;;6285092;28;20461;-61
2022/10/13 13:00:23;;;;;;;51.45;22.27;;;;;;;;;;6284624;28;20052;-64
2022/10/13 13:03:25;;;;;;;;;;;;;;;;;;6283678;28;20044;-64
2022/10/13 13:06:30;;;;;;;51.20;21.13;;;;;;;;;;6284697;28;19929;-64
2022/10/13 13:09:32;;;;;;;52.90;20.42;;;;;;;;;;6282750;28;20132;-60
2022/10/13 13:12:36;;;;;;;55.85;20.45;;;;;;;;;;6281903;28;20082;-61
2022/10/13 13:15:38;;;;;;;58.97;23.45;;;;;;;;;;6284303;28;21075;-60
2022/10/13 13:18:41;;;;;;;58.78;23.42;;;;;;;;;;6283231;28;20136;-62
2022/10/13 13:21:41;;;;;;;60.88;23.63;;;;;;;;;;6282449;28;20075;-65
2022/10/13 13:24:42;;;;;;;54.78;22.35;;;;;;;;;;6283486;28;20052;-65
2022/10/13 13:27:42;;;;;;;70.45;25.55;;;;;;;;;;6285783;28;20048;-61
2022/10/13 13:30:43;;;;;;;59.03;24.02;;;;;;;;;;6284110;28;20047;-63
2022/10/13 13:33:45;;;;;;;57.67;21.65;;;;;;;;;;6283723;28;20048;-65
2022/10/13 13:36:48;;;;;;;57.22;23.60;;;;;;;;;;6286551;28;20075;-60
2022/10/13 13:39:49;;;;;;;56.55;23.10;;;;;;;;;;6285213;28;20675;-63
2022/10/13 13:42:50;;;;;;;53.63;21.25;;;;;;;;;;6282481;28;20071;-65
2022/10/13 13:45:51;;;;;;;54.20;21.88;;;;;;;;;;6286034;28;20059;-62
2022/10/13 13:48:52;;;;;;;53.03;21.50;;;;;;;;;;6288270;28;20139;-61
2022/10/13 13:51:52;;;;;;;56.08;21.85;;;;;;;;;;6289827;28;21479;-62
2022/10/13 13:54:54;;;;;;;60.40;24.23;;;;;;;;;;6286235;28;20147;-61
2022/10/13 13:57:55;;;;;;;59.63;21.85;;;;;;;;;;6290006;28;20503;-61
2022/10/13 14:00:58;;;;;;;55.10;21.42;;;;;;;;;;6288548;28;20079;-61
2022/10/13 14:03:58;;;;;;;;;;;;;;;;;;6283939;28;20060;-63
2022/10/13 14:06:59;;;;;;;55.03;22.05;;;;;;;;;;6283602;28;21415;-59
2022/10/13 14:09:59;;;;;;;56.40;22.50;;;;;;;;;;6260812;28;20052;-60
2022/10/13 14:13:00;;;;;;;61.78;24.50;;;;;;;;;;6273851;28;20052;-59
2022/10/13 14:16:01;;;;;;;70.35;24.33;;;;;;;;;;6274776;28;20427;-63
2022/10/13 14:19:02;;;;;;;68.78;26.33;;;;;;;;;;6271055;28;20851;-64
2022/10/13 14:22:03;;;;;;;61.05;24.85;;;;;;;;;;6273213;28;20055;-63
2022/10/13 14:25:05;;;;;;;60.10;25.30;;;;;;;;;;6272691;28;20167;-61
2022/10/13 14:28:06;;;;;;;56.53;23.83;;;;;;;;;;6270384;28;20305;-59
2022/10/13 14:31:07;;;;;;;69.38;26.83;;;;;;;;;;6267684;28;20151;-60
2022/10/13 14:34:08;;;;;;;65.73;26.07;;;;;;;;;;6264268;28;20041;-59
2022/10/13 14:37:08;;;;;;;68.47;27.85;;;;;;;;;;6268753;28;20297;-61
2022/10/13 14:40:09;;;;;;;79.03;28.80;;;;;;;;;;6271459;28;20045;-62
2022/10/13 14:43:10;;;;;;;72.18;27.67;;;;;;;;;;6267288;28;20051;-63
2022/10/13 14:46:10;;;;;;;70.03;26.48;;;;;;;;;;6271591;28;20060;-61
2022/10/13 14:49:11;;;;;;;90.72;31.05;;;;;;;;;;6270636;28;20422;-62
2022/10/13 14:52:12;;;;;;;182.63;44.13;;;;;;;;;;6267858;28;20438;-62
2022/10/13 14:55:12;;;;;;;129.70;36.65;;;;;;;;;;6275570;28;20071;-62
2022/10/13 14:58:13;;;;;;;96.75;30.30;;;;;;;;;;6272194;28;20049;-60
2022/10/13 15:01:15;;;;;;;82.30;29.85;;;;;;;;;;6272893;28;20128;-61
2022/10/13 15:04:15;;;;;;;97.07;34.85;;;;;;;;;;6267269;28;20140;-61
2022/10/13 15:07:17;;;;;;;88.40;29.75;;;;;;;;;;6265974;28;20048;-58
2022/10/13 15:10:18;;;;;;;100.25;34.38;;;;;;;;;;6270477;28;20110;-63
2022/10/13 15:13:19;;;;;;;79.17;29.97;;;;;;;;;;6269241;28;20045;-61
2022/10/13 15:16:22;;;;;;;80.45;32.88;;;;;;;;;;6272485;28;20048;-59
2022/10/13 15:19:22;;;;;;;66.10;28.63;;;;;;;;;;6271414;28;20053;-62
2022/10/13 15:22:23;;;;;;;63.55;28.65;;;;;;;;;;6273643;28;21869;-60
2022/10/13 15:25:24;;;;;;;70.88;30.90;;;;;;;;;;6269659;28;20205;-59
2022/10/13 15:28:33;;;;;;;72.53;32.50;;;;;;;;;;6267436;28;20049;-60
2022/10/13 15:31:34;;;;;;;97.78;36.50;;;;;;;;;;6269556;28;20660;-59
2022/10/13 15:34:38;;;;;;;93.53;35.20;;;;;;;;;;6263552;28;20061;-58
2022/10/13 15:37:39;;;;;;;93.90;36.90;;;;;;;;;;6266342;28;20077;-58
2022/10/13 15:40:40;;;;;;;88.75;35.75;;;;;;;;;;6272703;28;20050;-61
2022/10/13 15:43:41;;;;;;;82.03;34.88;;;;;;;;;;6264869;28;20168;-57
2022/10/13 15:46:42;;;;;;;89.90;33.88;;;;;;;;;;6267644;28;20515;-56
2022/10/13 15:49:43;;;;;;;88.57;36.60;;;;;;;;;;6271723;28;20562;-59
2022/10/13 15:52:44;;;;;;;92.75;38.88;;;;;;;;;;6275655;28;20048;-60
2022/10/13 15:55:46;;;;;;;93.73;35.77;;;;;;;;;;6271135;28;20048;-59
2022/10/13 15:58:46;;;;;;;94.63;34.97;;;;;;;;;;6270174;28;20053;-59
2022/10/13 16:01:47;;;;;;;128.18;46.55;;;;;;;;;;6270885;28;20727;-60
2022/10/13 16:04:47;;;;;;;95.35;40.55;;;;;;;;;;6262408;28;20082;-60
2022/10/13 16:07:48;;;;;;;73.40;31.50;;;;;;;;;;6264930;28;20072;-59
2022/10/13 16:10:49;;;;;;;66.68;26.20;;;;;;;;;;6270874;28;20057;-60
2022/10/13 16:13:51;;;;;;;121.57;43.28;;;;;;;;;;6265416;28;20044;-60
2022/10/13 16:16:51;;;;;;;147.57;51.88;;;;;;;;;;6270275;28;20503;-59
2022/10/13 16:19:52;;;;;;;82.80;32.15;;;;;;;;;;6269475;28;20049;-60
2022/10/13 16:22:53;;;;;;;114.72;41.35;;;;;;;;;;6268138;28;20048;-59
2022/10/13 16:25:53;;;;;;;129.73;48.30;;;;;;;;;;6272216;28;20056;-59
2022/10/13 16:28:55;;;;;;;112.80;43.75;;;;;;;;;;6265546;28;20053;-59
2022/10/13 16:31:56;;;;;;;121.85;45.70;;;;;;;;;;6271902;28;20686;-60
2022/10/13 16:34:56;;;;;;;122.25;44.00;;;;;;;;;;6269244;28;20037;-60
2022/10/13 16:37:59;;;;;;;123.70;44.20;;;;;;;;;;6266723;28;20091;-60
2022/10/13 16:41:04;;;;;;;119.67;44.40;;;;;;;;;;6265587;28;20638;-60
2022/10/13 16:44:05;;;;;;;130.63;46.45;;;;;;;;;;6264714;28;20594;-60
2022/10/13 16:47:05;;;;;;;125.07;41.38;;;;;;;;;;6265008;28;20053;-60
2022/10/13 16:50:08;;;;;;;124.13;43.47;;;;;;;;;;6272850;28;20052;-61
2022/10/13 16:53:09;;;;;;;127.47;44.70;;;;;;;;;;6265460;28;20056;-58
2022/10/13 16:56:10;;;;;;;123.13;45.63;;;;;;;;;;6265407;28;20064;-58
2022/10/13 16:59:11;;;;;;;135.30;49.35;;;;;;;;;;6266008;28;20051;-57
2022/10/13 17:02:14;;;;;;;142.63;49.10;;;;;;;;;;6269384;28;20054;-58
2022/10/13 17:05:15;;;;;;;142.45;50.38;;;;;;;;;;6268099;28;20254;-58
2022/10/13 17:08:16;;;;;;;177.88;69.03;;;;;;;;;;6268297;28;20068;-66
2022/10/13 17:11:22;;;;;;;142.30;51.50;;;;;;;;;;6267101;28;20136;-57
2022/10/13 17:14:22;;;;;;;157.07;57.45;;;;;;;;;;6268812;28;20121;-59
2022/10/13 17:17:23;;;;;;;170.30;58.63;;;;;;;;;;6264733;28;20118;-57
2022/10/13 17:20:23;;;;;;;311.52;98.80;;;;;;;;;;6274931;28;20057;-61
2022/10/13 17:23:25;;;;;;;177.80;62.60;;;;;;;;;;6269637;28;20049;-59
2022/10/13 17:26:25;;;;;;;219.98;75.13;;;;;;;;;;6273118;28;20139;-59
2022/10/13 17:29:26;;;;;;;238.25;80.93;;;;;;;;;;6271601;28;20103;-59
2022/10/13 17:32:27;;;;;;;193.25;67.45;;;;;;;;;;6273870;28;20110;-60
2022/10/13 17:35:30;;;;;;;176.52;62.70;;;;;;;;;;6269960;28;20059;-60
2022/10/13 17:38:31;;;;;;;174.18;61.60;;;;;;;;;;6270679;28;20068;-61
2022/10/13 17:41:32;;;;;;;170.95;62.33;;;;;;;;;;6274582;28;20080;-65
2022/10/13 17:44:32;;;;;;;189.50;65.80;;;;;;;;;;6269011;28;20145;-60
2022/10/13 17:47:33;;;;;;;230.55;74.85;;;;;;;;;;6268560;28;20052;-58